sensor_id;sensor_type;location;lat;lon;timestamp;pressure;altitude;pressure_sealevel;temperature;humidity
78073;BME280;67281;48.770;11.440;2023-08-08T00:01:17;97410.66;;;18.65;57.73
78073;BME280;67281;48.770;11.440;2023-08-08T00:03:44;97409.16;;;18.63;58.39
78073;BME280;67281;48.770;11.440;2023-08-08T00:06:11;97403.84;;;18.63;58.54
78073;BME280;67281;48.770;11.440;2023-08-08T00:08:38;97407.47;;;18.62;58.36
78073;BME280;67281;48.770;11.440;2023-08-08T00:11:05;97402.59;;;18.57;58.50
78073;BME280;67281;48.770;11.440;2023-08-08T00:13:32;97406.41;;;18.55;57.90
78073;BME280;67281;48.770;11.440;2023-08-08T00:15:59;97407.63;;;18.60;57.79
78073;BME280;67281;48.770;11.440;2023-08-08T00:18:26;97403.44;;;18.58;58.36
78073;BME280;67281;48.770;11.440;2023-08-08T00:20:53;97399.44;;;18.54;57.72
78073;BME280;67281;48.770;11.440;2023-08-08T00:23:20;97396.25;;;18.50;58.05
78073;BME280;67281;48.770;11.440;2023-08-08T00:25:47;97402.41;;;18.51;58.13
78073;BME280;67281;48.770;11.440;2023-08-08T00:28:17;97399.22;;;18.47;57.81
78073;BME280;67281;48.770;11.440;2023-08-08T00:30:44;97406.88;;;18.50;57.82
78073;BME280;67281;48.770;11.440;2023-08-08T00:33:11;97391.09;;;18.49;57.93
78073;BME280;67281;48.770;11.440;2023-08-08T00:35:38;97398.38;;;18.47;57.45
78073;BME280;67281;48.770;11.440;2023-08-08T00:38:05;97395.88;;;18.45;57.93
78073;BME280;67281;48.770;11.440;2023-08-08T00:40:32;97394.22;;;18.44;57.86
78073;BME280;67281;48.770;11.440;2023-08-08T00:42:59;97396.72;;;18.46;57.87
78073;BME280;67281;48.770;11.440;2023-08-08T00:45:26;97392.56;;;18.43;57.75
78073;BME280;67281;48.770;11.440;2023-08-08T00:47:53;97392.56;;;18.43;57.35
78073;BME280;67281;48.770;11.440;2023-08-08T00:50:21;97389.38;;;18.39;58.06
78073;BME280;67281;48.770;11.440;2023-08-08T00:52:48;97387.25;;;18.43;57.64
78073;BME280;67281;48.770;11.440;2023-08-08T00:55:14;97380.13;;;18.44;57.70
78073;BME280;67281;48.770;11.440;2023-08-08T00:57:42;97378.44;;;18.43;57.40
78073;BME280;67281;48.770;11.440;2023-08-08T01:00:09;97380.13;;;18.44;57.70
78073;BME280;67281;48.770;11.440;2023-08-08T01:02:37;97383.75;;;18.43;57.61
78073;BME280;67281;48.770;11.440;2023-08-08T01:05:05;97372.47;;;18.41;57.77
78073;BME280;67281;48.770;11.440;2023-08-08T01:08:07;97371.47;;;18.42;57.42
78073;BME280;67281;48.770;11.440;2023-08-08T01:10:39;97374.97;;;18.42;57.94
78073;BME280;67281;48.770;11.440;2023-08-08T01:13:24;97367.16;;;18.41;57.66
78073;BME280;67281;48.770;11.440;2023-08-08T01:15:53;97378.75;;;18.39;57.92
78073;BME280;67281;48.770;11.440;2023-08-08T01:18:22;97379.44;;;18.42;57.25
78073;BME280;67281;48.770;11.440;2023-08-08T01:20:50;97376.94;;;18.40;56.87
78073;BME280;67281;48.770;11.440;2023-08-08T01:23:30;97381.41;;;18.39;57.57
78073;BME280;67281;48.770;11.440;2023-08-08T01:25:58;97374.44;;;18.38;58.06
78073;BME280;67281;48.770;11.440;2023-08-08T01:28:26;97366.63;;;18.37;57.62
78073;BME280;67281;48.770;11.440;2023-08-08T01:30:53;97375.41;;;18.37;57.19
78073;BME280;67281;48.770;11.440;2023-08-08T01:33:20;97369.59;;;18.34;57.47
78073;BME280;67281;48.770;11.440;2023-08-08T01:35:54;97369.44;;;18.35;57.01
78073;BME280;67281;48.770;11.440;2023-08-08T01:38:34;97365.25;;;18.33;57.80
78073;BME280;67281;48.770;11.440;2023-08-08T01:41:04;97363.59;;;18.32;57.68
78073;BME280;67281;48.770;11.440;2023-08-08T01:43:32;97365.13;;;18.34;56.98
78073;BME280;67281;48.770;11.440;2023-08-08T01:46:00;97362.78;;;18.31;57.93
78073;BME280;67281;48.770;11.440;2023-08-08T01:48:27;97360.78;;;18.33;56.85
78073;BME280;67281;48.770;11.440;2023-08-08T01:50:54;97368.06;;;18.31;57.44
78073;BME280;67281;48.770;11.440;2023-08-08T01:53:21;97373.53;;;18.30;57.67
78073;BME280;67281;48.770;11.440;2023-08-08T01:55:48;97372.00;;;18.27;57.17
78073;BME280;67281;48.770;11.440;2023-08-08T01:58:15;97364.75;;;18.29;57.45
78073;BME280;67281;48.770;11.440;2023-08-08T02:00:41;97370.03;;;18.29;56.87
78073;BME280;67281;48.770;11.440;2023-08-08T02:03:10;97367.53;;;18.28;57.26
78073;BME280;67281;48.770;11.440;2023-08-08T02:05:38;97363.91;;;18.29;57.91
78073;BME280;67281;48.770;11.440;2023-08-08T02:08:05;97372.00;;;18.27;57.84
78073;BME280;67281;48.770;11.440;2023-08-08T02:10:31;97362.22;;;18.28;57.14
78073;BME280;67281;48.770;11.440;2023-08-08T02:12:58;97359.06;;;18.24;58.09
78073;BME280;67281;48.770;11.440;2023-08-08T02:15:25;97352.75;;;18.25;57.62
78073;BME280;67281;48.770;11.440;2023-08-08T02:17:52;97357.25;;;18.25;57.94
78073;BME280;67281;48.770;11.440;2023-08-08T02:20:19;97358.91;;;18.26;57.41
78073;BME280;67281;48.770;11.440;2023-08-08T02:22:46;97347.09;;;18.20;58.23
78073;BME280;67281;48.770;11.440;2023-08-08T02:25:13;97356.41;;;18.24;57.60
78073;BME280;67281;48.770;11.440;2023-08-08T02:27:40;97355.41;;;18.25;57.58
78073;BME280;67281;48.770;11.440;2023-08-08T02:30:07;97353.91;;;18.23;57.72
78073;BME280;67281;48.770;11.440;2023-08-08T02:32:34;97350.41;;;18.22;57.39
78073;BME280;67281;48.770;11.440;2023-08-08T02:35:01;97349.59;;;18.22;57.79
78073;BME280;67281;48.770;11.440;2023-08-08T02:37:28;97357.00;;;18.18;57.34
78073;BME280;67281;48.770;11.440;2023-08-08T02:39:55;97352.84;;;18.16;57.90
78073;BME280;67281;48.770;11.440;2023-08-08T02:42:22;97365.66;;;18.20;57.60
78073;BME280;67281;48.770;11.440;2023-08-08T02:44:48;97358.69;;;18.19;57.89
78073;BME280;67281;48.770;11.440;2023-08-08T02:47:15;97352.38;;;18.20;57.93
78073;BME280;67281;48.770;11.440;2023-08-08T02:49:42;97352.53;;;18.19;58.45
78073;BME280;67281;48.770;11.440;2023-08-08T02:52:09;97355.88;;;18.21;58.03
78073;BME280;67281;48.770;11.440;2023-08-08T02:54:35;97360.34;;;18.20;57.57
78073;BME280;67281;48.770;11.440;2023-08-08T02:57:02;97360.66;;;18.17;57.38
78073;BME280;67281;48.770;11.440;2023-08-08T02:59:29;97359.13;;;18.15;57.79
78073;BME280;67281;48.770;11.440;2023-08-08T03:01:56;97355.34;;;18.17;58.09
78073;BME280;67281;48.770;11.440;2023-08-08T03:04:24;97358.81;;;18.18;57.55
78073;BME280;67281;48.770;11.440;2023-08-08T03:06:51;97365.66;;;18.20;58.28
78073;BME280;67281;48.770;11.440;2023-08-08T03:09:18;97356.72;;;18.21;57.52
78073;BME280;67281;48.770;11.440;2023-08-08T03:11:44;97353.22;;;18.21;57.46
78073;BME280;67281;48.770;11.440;2023-08-08T03:14:11;97357.53;;;18.22;58.58
78073;BME280;67281;48.770;11.440;2023-08-08T03:16:38;97362.00;;;18.21;58.21
78073;BME280;67281;48.770;11.440;2023-08-08T03:19:05;97356.84;;;18.20;58.05
78073;BME280;67281;48.770;11.440;2023-08-08T03:21:32;97348.06;;;18.19;57.50
78073;BME280;67281;48.770;11.440;2023-08-08T03:23:59;97355.34;;;18.17;57.99
78073;BME280;67281;48.770;11.440;2023-08-08T03:26:25;97354.34;;;18.18;58.54
78073;BME280;67281;48.770;11.440;2023-08-08T03:28:52;97350.72;;;18.19;57.89
78073;BME280;67281;48.770;11.440;2023-08-08T03:31:20;97353.38;;;18.19;57.49
78073;BME280;67281;48.770;11.440;2023-08-08T03:33:47;97342.91;;;18.18;58.52
78073;BME280;67281;48.770;11.440;2023-08-08T03:36:14;97344.72;;;18.17;57.56
78073;BME280;67281;48.770;11.440;2023-08-08T03:38:41;97347.38;;;18.17;58.66
78073;BME280;67281;48.770;11.440;2023-08-08T03:41:12;97347.22;;;18.19;58.43
78073;BME280;67281;48.770;11.440;2023-08-08T03:43:40;97338.28;;;18.20;57.57
78073;BME280;67281;48.770;11.440;2023-08-08T03:46:07;97341.09;;;18.18;58.66
78073;BME280;67281;48.770;11.440;2023-08-08T03:48:34;97347.09;;;18.20;58.26
78073;BME280;67281;48.770;11.440;2023-08-08T03:51:01;97345.25;;;18.21;58.75
78073;BME280;67281;48.770;11.440;2023-08-08T03:53:28;97349.88;;;18.19;58.08
78073;BME280;67281;48.770;11.440;2023-08-08T03:55:55;97355.19;;;18.19;58.54
78073;BME280;67281;48.770;11.440;2023-08-08T03:58:22;97360.34;;;18.20;58.42
78073;BME280;67281;48.770;11.440;2023-08-08T04:00:49;97360.34;;;18.20;58.23
78073;BME280;67281;48.770;11.440;2023-08-08T04:03:16;97366.47;;;18.21;58.27
78073;BME280;67281;48.770;11.440;2023-08-08T04:05:44;97368.31;;;18.20;58.25
78073;BME280;67281;48.770;11.440;2023-08-08T04:08:15;97363.84;;;18.21;58.12
78073;BME280;67281;48.770;11.440;2023-08-08T04:10:43;97366.47;;;18.21;58.36
78073;BME280;67281;48.770;11.440;2023-08-08T04:13:10;97364.97;;;18.18;58.32
78073;BME280;67281;48.770;11.440;2023-08-08T04:15:37;97373.59;;;18.20;58.12
78073;BME280;67281;48.770;11.440;2023-08-08T04:18:04;97374.28;;;18.22;58.14
78073;BME280;67281;48.770;11.440;2023-08-08T04:20:33;97368.97;;;18.22;57.93
78073;BME280;67281;48.770;11.440;2023-08-08T04:23:01;97366.47;;;18.21;58.61
78073;BME280;67281;48.770;11.440;2023-08-08T04:25:28;97363.84;;;18.21;58.50
78073;BME280;67281;48.770;11.440;2023-08-08T04:27:55;97363.97;;;18.19;57.87
78073;BME280;67281;48.770;11.440;2023-08-08T04:30:22;97368.59;;;18.17;58.35
78073;BME280;67281;48.770;11.440;2023-08-08T04:32:50;97365.13;;;18.17;58.62
78073;BME280;67281;48.770;11.440;2023-08-08T04:35:17;97363.16;;;18.19;58.25
78073;BME280;67281;48.770;11.440;2023-08-08T04:37:44;97361.78;;;18.15;58.80
78073;BME280;67281;48.770;11.440;2023-08-08T04:40:11;97368.59;;;18.17;58.67
78073;BME280;67281;48.770;11.440;2023-08-08T04:42:38;97367.63;;;18.18;59.39
78073;BME280;67281;48.770;11.440;2023-08-08T04:45:06;97365.66;;;18.20;59.27
78073;BME280;67281;48.770;11.440;2023-08-08T04:47:33;97370.28;;;18.18;58.94
78073;BME280;67281;48.770;11.440;2023-08-08T04:50:03;97365.94;;;18.17;58.95
78073;BME280;67281;48.770;11.440;2023-08-08T04:52:30;97366.47;;;18.21;59.82
78073;BME280;67281;48.770;11.440;2023-08-08T04:54:56;97364.50;;;18.23;59.10
78073;BME280;67281;48.770;11.440;2023-08-08T04:57:23;97363.00;;;18.20;59.29
78073;BME280;67281;48.770;11.440;2023-08-08T04:59:50;97366.47;;;18.21;58.47
78073;BME280;67281;48.770;11.440;2023-08-08T05:02:17;97365.66;;;18.20;59.42
78073;BME280;67281;48.770;11.440;2023-08-08T05:04:44;97365.66;;;18.20;58.87
78073;BME280;67281;48.770;11.440;2023-08-08T05:07:11;97356.03;;;18.19;59.08
78073;BME280;67281;48.770;11.440;2023-08-08T05:09:37;97370.81;;;18.22;59.13
78073;BME280;67281;48.770;11.440;2023-08-08T05:12:05;97369.28;;;18.19;58.55
78073;BME280;67281;48.770;11.440;2023-08-08T05:14:32;97374.59;;;18.19;58.69
78073;BME280;67281;48.770;11.440;2023-08-08T05:16:58;97369.59;;;18.16;58.81
78073;BME280;67281;48.770;11.440;2023-08-08T05:19:25;97373.91;;;18.17;58.59
78073;BME280;67281;48.770;11.440;2023-08-08T05:21:52;97366.47;;;18.21;58.97
78073;BME280;67281;48.770;11.440;2023-08-08T05:24:19;97373.59;;;18.20;59.38
78073;BME280;67281;48.770;11.440;2023-08-08T05:26:46;97361.03;;;18.22;58.77
78073;BME280;67281;48.770;11.440;2023-08-08T05:29:13;97374.75;;;18.18;58.71
78073;BME280;67281;48.770;11.440;2023-08-08T05:31:40;97377.25;;;18.19;58.44
78073;BME280;67281;48.770;11.440;2023-08-08T05:34:06;97370.28;;;18.18;59.10
78073;BME280;67281;48.770;11.440;2023-08-08T05:36:34;97377.09;;;18.21;59.17
78073;BME280;67281;48.770;11.440;2023-08-08T05:39:00;97363.97;;;18.19;58.83
78073;BME280;67281;48.770;11.440;2023-08-08T05:41:27;97369.97;;;18.21;59.02
78073;BME280;67281;48.770;11.440;2023-08-08T05:43:54;97362.00;;;18.21;58.83
78073;BME280;67281;48.770;11.440;2023-08-08T05:46:21;97370.28;;;18.18;58.84
78073;BME280;67281;48.770;11.440;2023-08-08T05:48:48;97371.84;;;18.11;58.34
78073;BME280;67281;48.770;11.440;2023-08-08T05:51:15;97368.91;;;18.14;58.64
78073;BME280;67281;48.770;11.440;2023-08-08T05:53:42;97366.09;;;18.16;58.25
78073;BME280;67281;48.770;11.440;2023-08-08T05:56:09;97361.94;;;18.13;58.98
78073;BME280;67281;48.770;11.440;2023-08-08T05:58:36;97364.97;;;18.18;59.31
78073;BME280;67281;48.770;11.440;2023-08-08T06:01:04;97379.06;;;18.19;58.75
78073;BME280;67281;48.770;11.440;2023-08-08T06:03:36;97368.75;;;18.16;58.63
78073;BME280;67281;48.770;11.440;2023-08-08T06:06:04;97382.69;;;18.18;58.90
78073;BME280;67281;48.770;11.440;2023-08-08T06:08:31;97373.91;;;18.17;58.49
78073;BME280;67281;48.770;11.440;2023-08-08T06:10:58;97378.38;;;18.17;58.20
78073;BME280;67281;48.770;11.440;2023-08-08T06:13:25;97383.53;;;18.18;58.41
78073;BME280;67281;48.770;11.440;2023-08-08T06:15:52;97373.59;;;18.20;58.83
78073;BME280;67281;48.770;11.440;2023-08-08T06:18:19;97376.25;;;18.20;58.61
78073;BME280;67281;48.770;11.440;2023-08-08T06:20:46;97370.56;;;18.15;58.56
78073;BME280;67281;48.770;11.440;2023-08-08T06:23:13;97371.56;;;18.14;58.31
78073;BME280;67281;48.770;11.440;2023-08-08T06:25:41;97368.22;;;18.12;58.51
78073;BME280;67281;48.770;11.440;2023-08-08T06:28:09;97372.69;;;18.12;58.02
78073;BME280;67281;48.770;11.440;2023-08-08T06:30:35;97364.88;;;18.10;58.01
78073;BME280;67281;48.770;11.440;2023-08-08T06:33:02;97361.84;;;18.05;58.04
78073;BME280;67281;48.770;11.440;2023-08-08T06:35:30;97361.56;;;18.08;57.69
78073;BME280;67281;48.770;11.440;2023-08-08T06:37:56;97356.78;;;18.12;57.99
78073;BME280;67281;48.770;11.440;2023-08-08T06:40:23;97364.88;;;18.10;58.22
78073;BME280;67281;48.770;11.440;2023-08-08T06:42:50;97364.50;;;18.05;58.29
78073;BME280;67281;48.770;11.440;2023-08-08T06:45:17;97365.03;;;18.09;58.24
78073;BME280;67281;48.770;11.440;2023-08-08T06:47:44;97361.25;;;18.11;57.73
78073;BME280;67281;48.770;11.440;2023-08-08T06:50:12;97357.91;;;18.09;58.35
78073;BME280;67281;48.770;11.440;2023-08-08T06:52:39;97357.25;;;18.07;58.34
78073;BME280;67281;48.770;11.440;2023-08-08T06:55:06;97357.25;;;18.07;58.21
78073;BME280;67281;48.770;11.440;2023-08-08T06:57:33;97358.22;;;18.06;58.61
78073;BME280;67281;48.770;11.440;2023-08-08T07:00:02;97355.41;;;18.08;58.69
78073;BME280;67281;48.770;11.440;2023-08-08T07:02:31;97348.44;;;18.06;58.31
78073;BME280;67281;48.770;11.440;2023-08-08T07:04:58;97357.91;;;18.09;57.79
78073;BME280;67281;48.770;11.440;2023-08-08T07:07:25;97361.56;;;18.08;58.62
78073;BME280;67281;48.770;11.440;2023-08-08T07:09:52;97349.97;;;18.09;58.43
78073;BME280;67281;48.770;11.440;2023-08-08T07:12:19;97341.56;;;18.14;58.12
78073;BME280;67281;48.770;11.440;2023-08-08T07:14:46;97345.88;;;18.15;57.88
78073;BME280;67281;48.770;11.440;2023-08-08T07:17:13;97347.09;;;18.20;58.43
78073;BME280;67281;48.770;11.440;2023-08-08T07:19:41;97346.09;;;18.21;58.47
78073;BME280;67281;48.770;11.440;2023-08-08T07:22:08;97341.78;;;18.20;58.24
78073;BME280;67281;48.770;11.440;2023-08-08T07:24:35;97345.94;;;18.23;58.65
78073;BME280;67281;48.770;11.440;2023-08-08T07:27:02;97349.28;;;18.25;58.21
78073;BME280;67281;48.770;11.440;2023-08-08T07:29:30;97347.47;;;18.25;58.78
78073;BME280;67281;48.770;11.440;2023-08-08T07:31:58;97337.16;;;18.22;59.00
78073;BME280;67281;48.770;11.440;2023-08-08T07:34:25;97339.50;;;18.25;58.69
78073;BME280;67281;48.770;11.440;2023-08-08T07:36:52;97331.25;;;18.28;58.61
78073;BME280;67281;48.770;11.440;2023-08-08T07:39:22;97338.06;;;18.31;58.66
78073;BME280;67281;48.770;11.440;2023-08-08T07:41:49;97331.91;;;18.30;58.29
78073;BME280;67281;48.770;11.440;2023-08-08T07:44:16;97339.56;;;18.33;58.71
78073;BME280;67281;48.770;11.440;2023-08-08T07:46:42;97335.09;;;18.34;58.28
78073;BME280;67281;48.770;11.440;2023-08-08T07:49:09;97330.47;;;18.36;58.14
78073;BME280;67281;48.770;11.440;2023-08-08T07:51:36;97328.66;;;18.36;58.22
78073;BME280;67281;48.770;11.440;2023-08-08T07:54:03;97322.50;;;18.36;58.35
78073;BME280;67281;48.770;11.440;2023-08-08T07:56:35;97320.69;;;18.36;58.79
78073;BME280;67281;48.770;11.440;2023-08-08T07:59:03;97331.47;;;18.35;58.37
78073;BME280;67281;48.770;11.440;2023-08-08T08:01:30;97332.44;;;18.34;58.90
78073;BME280;67281;48.770;11.440;2023-08-08T08:03:57;97329.63;;;18.35;58.49
78073;BME280;67281;48.770;11.440;2023-08-08T08:06:24;97337.59;;;18.35;58.11
78073;BME280;67281;48.770;11.440;2023-08-08T08:08:51;97318.03;;;18.36;57.68
78073;BME280;67281;48.770;11.440;2023-08-08T08:11:17;97329.19;;;18.40;58.29
78073;BME280;67281;48.770;11.440;2023-08-08T08:13:44;97323.41;;;18.45;58.53
78073;BME280;67281;48.770;11.440;2023-08-08T08:16:11;97314.47;;;18.46;58.88
78073;BME280;67281;48.770;11.440;2023-08-08T08:18:38;97317.13;;;18.46;58.17
78073;BME280;67281;48.770;11.440;2023-08-08T08:21:05;97306.19;;;18.49;58.66
78073;BME280;67281;48.770;11.440;2023-08-08T08:23:31;97297.25;;;18.50;58.54
78073;BME280;67281;48.770;11.440;2023-08-08T08:25:59;97303.22;;;18.52;58.28
78073;BME280;67281;48.770;11.440;2023-08-08T08:28:26;97300.56;;;18.52;58.88
78073;BME280;67281;48.770;11.440;2023-08-08T08:30:53;97304.75;;;18.54;58.23
78073;BME280;67281;48.770;11.440;2023-08-08T08:33:20;97303.06;;;18.53;57.84
78073;BME280;67281;48.770;11.440;2023-08-08T08:35:47;97303.22;;;18.52;57.98
78073;BME280;67281;48.770;11.440;2023-08-08T08:38:13;97302.75;;;18.56;58.07
78073;BME280;67281;48.770;11.440;2023-08-08T08:40:41;97301.94;;;18.56;57.95
78073;BME280;67281;48.770;11.440;2023-08-08T08:43:08;97298.09;;;18.58;57.94
78073;BME280;67281;48.770;11.440;2023-08-08T08:45:37;97296.28;;;18.59;57.86
78073;BME280;67281;48.770;11.440;2023-08-08T08:48:09;97288.19;;;18.60;57.54
78073;BME280;67281;48.770;11.440;2023-08-08T08:50:38;97297.94;;;18.60;57.55
78073;BME280;67281;48.770;11.440;2023-08-08T08:53:07;97288.31;;;18.59;57.74
78073;BME280;67281;48.770;11.440;2023-08-08T08:55:34;97288.88;;;18.62;57.59
78073;BME280;67281;48.770;11.440;2023-08-08T08:58:01;97285.91;;;18.65;58.00
78073;BME280;67281;48.770;11.440;2023-08-08T09:00:28;97281.28;;;18.67;57.31
78073;BME280;67281;48.770;11.440;2023-08-08T09:02:58;97287.25;;;18.69;57.35
78073;BME280;67281;48.770;11.440;2023-08-08T09:05:26;97286.25;;;18.70;57.77
78073;BME280;67281;48.770;11.440;2023-08-08T09:07:53;97287.78;;;18.73;56.90
78073;BME280;67281;48.770;11.440;2023-08-08T09:10:20;97275.19;;;18.75;57.38
78073;BME280;67281;48.770;11.440;2023-08-08T09:12:47;97276.53;;;18.79;57.15
78073;BME280;67281;48.770;11.440;2023-08-08T09:15:15;97279.84;;;18.81;57.02
78073;BME280;67281;48.770;11.440;2023-08-08T09:17:43;97283.19;;;18.83;57.73
78073;BME280;67281;48.770;11.440;2023-08-08T09:20:15;97267.25;;;18.83;57.57
78073;BME280;67281;48.770;11.440;2023-08-08T09:22:43;97268.09;;;18.84;57.36
78073;BME280;67281;48.770;11.440;2023-08-08T09:25:11;97271.41;;;18.86;57.14
78073;BME280;67281;48.770;11.440;2023-08-08T09:27:41;97279.22;;;18.87;57.37
78073;BME280;67281;48.770;11.440;2023-08-08T09:30:09;97282.56;;;18.89;56.89
78073;BME280;67281;48.770;11.440;2023-08-08T09:32:37;97277.91;;;18.91;56.78
78073;BME280;67281;48.770;11.440;2023-08-08T09:35:04;97276.94;;;18.92;57.67
78073;BME280;67281;48.770;11.440;2023-08-08T09:37:34;97275.84;;;19.11;58.42
78073;BME280;67281;48.770;11.440;2023-08-08T09:40:03;97273.25;;;19.35;57.70
78073;BME280;67281;48.770;11.440;2023-08-08T09:42:32;97267.47;;;19.40;56.69
78073;BME280;67281;48.770;11.440;2023-08-08T09:44:59;97274.59;;;19.40;55.99
78073;BME280;67281;48.770;11.440;2023-08-08T09:47:26;97269.94;;;19.25;56.80
78073;BME280;67281;48.770;11.440;2023-08-08T09:50:01;97271.06;;;19.15;56.99
78073;BME280;67281;48.770;11.440;2023-08-08T09:52:33;97268.88;;;19.10;56.95
78073;BME280;67281;48.770;11.440;2023-08-08T09:55:01;97270.69;;;19.10;56.91
78073;BME280;67281;48.770;11.440;2023-08-08T09:57:29;97262.72;;;19.10;56.26
78073;BME280;67281;48.770;11.440;2023-08-08T09:59:57;97255.59;;;19.10;56.84
78073;BME280;67281;48.770;11.440;2023-08-08T10:02:24;97261.59;;;19.12;56.44
78073;BME280;67281;48.770;11.440;2023-08-08T10:04:52;97255.47;;;19.20;56.00
78073;BME280;67281;48.770;11.440;2023-08-08T10:07:19;97260.09;;;19.18;55.85
78073;BME280;67281;48.770;11.440;2023-08-08T10:09:46;97261.31;;;19.40;56.52
78073;BME280;67281;48.770;11.440;2023-08-08T10:12:13;97259.56;;;19.56;55.30
78073;BME280;67281;48.770;11.440;2023-08-08T10:14:42;97258.41;;;19.59;54.93
78073;BME280;67281;48.770;11.440;2023-08-08T10:17:13;97261.88;;;19.59;54.80
78073;BME280;67281;48.770;11.440;2023-08-08T10:19:50;97255.91;;;19.57;54.64
78073;BME280;67281;48.770;11.440;2023-08-08T10:22:20;97252.84;;;19.44;55.19
78073;BME280;67281;48.770;11.440;2023-08-08T10:24:54;97245.53;;;19.38;55.32
78073;BME280;67281;48.770;11.440;2023-08-08T10:27:31;97247.50;;;19.36;54.78
78073;BME280;67281;48.770;11.440;2023-08-08T10:30:04;97245.22;;;19.41;54.99
78073;BME280;67281;48.770;11.440;2023-08-08T10:32:41;97248.72;;;19.50;54.69
78073;BME280;67281;48.770;11.440;2023-08-08T10:35:10;97238.13;;;19.66;54.14
78073;BME280;67281;48.770;11.440;2023-08-08T10:37:39;97240.44;;;19.53;55.09
78073;BME280;67281;48.770;11.440;2023-08-08T10:40:07;97242.94;;;19.54;55.03
78073;BME280;67281;48.770;11.440;2023-08-08T10:42:42;97244.13;;;19.60;53.90
78073;BME280;67281;48.770;11.440;2023-08-08T10:45:11;97244.94;;;19.60;54.24
78073;BME280;67281;48.770;11.440;2023-08-08T10:47:42;97236.31;;;19.58;54.26
78073;BME280;67281;48.770;11.440;2023-08-08T10:50:13;97232.66;;;19.67;53.45
78073;BME280;67281;48.770;11.440;2023-08-08T10:57:55;97224.50;;;19.61;53.68
78073;BME280;67281;48.770;11.440;2023-08-08T11:00:24;97230.34;;;19.64;53.73
78073;BME280;67281;48.770;11.440;2023-08-08T11:02:53;97225.38;;;19.78;52.84
78073;BME280;67281;48.770;11.440;2023-08-08T11:05:22;97230.50;;;19.79;52.10
78073;BME280;67281;48.770;11.440;2023-08-08T11:07:49;97226.69;;;19.74;52.12
78073;BME280;67281;48.770;11.440;2023-08-08T11:10:17;97224.69;;;19.84;51.94
78073;BME280;67281;48.770;11.440;2023-08-08T11:12:56;97213.41;;;19.82;51.37
78073;BME280;67281;48.770;11.440;2023-08-08T11:15:24;97219.38;;;19.76;52.68
78073;BME280;67281;48.770;11.440;2023-08-08T11:17:51;97202.09;;;19.72;52.51
78073;BME280;67281;48.770;11.440;2023-08-08T11:20:19;97204.09;;;19.69;52.28
78073;BME280;67281;48.770;11.440;2023-08-08T11:22:51;97218.03;;;19.72;52.47
78073;BME280;67281;48.770;11.440;2023-08-08T11:25:19;97213.38;;;19.74;53.79
78073;BME280;67281;48.770;11.440;2023-08-08T11:27:53;97211.72;;;19.73;53.29
78073;BME280;67281;48.770;11.440;2023-08-08T11:30:21;97213.72;;;19.71;53.61
78073;BME280;67281;48.770;11.440;2023-08-08T11:32:49;97216.22;;;19.72;53.63
78073;BME280;67281;48.770;11.440;2023-08-08T11:35:23;97199.28;;;19.73;53.58
78073;BME280;67281;48.770;11.440;2023-08-08T11:37:55;97203.75;;;19.81;53.56
78073;BME280;67281;48.770;11.440;2023-08-08T11:40:25;97196.28;;;19.84;53.36
78073;BME280;67281;48.770;11.440;2023-08-08T11:42:53;97203.94;;;19.87;53.17
78073;BME280;67281;48.770;11.440;2023-08-08T11:45:20;97202.59;;;19.83;53.28
78073;BME280;67281;48.770;11.440;2023-08-08T11:47:51;97198.44;;;19.89;52.69
78073;BME280;67281;48.770;11.440;2023-08-08T11:50:20;97184.16;;;19.90;53.50
78073;BME280;67281;48.770;11.440;2023-08-08T11:52:54;97190.47;;;19.89;53.07
78073;BME280;67281;48.770;11.440;2023-08-08T11:55:27;97207.91;;;19.91;52.82
78073;BME280;67281;48.770;11.440;2023-08-08T11:57:54;97188.78;;;19.96;52.60
78073;BME280;67281;48.770;11.440;2023-08-08T12:00:27;97192.13;;;19.98;52.79
78073;BME280;67281;48.770;11.440;2023-08-08T12:02:56;97191.28;;;19.97;52.28
78073;BME280;67281;48.770;11.440;2023-08-08T12:05:23;97190.63;;;19.95;52.53
78073;BME280;67281;48.770;11.440;2023-08-08T12:07:51;97183.47;;;20.04;52.81
78073;BME280;67281;48.770;11.440;2023-08-08T12:10:20;97196.44;;;19.99;52.72
78073;BME280;67281;48.770;11.440;2023-08-08T12:12:53;97188.28;;;20.00;52.21
78073;BME280;67281;48.770;11.440;2023-08-08T12:15:20;97189.13;;;20.01;52.57
78073;BME280;67281;48.770;11.440;2023-08-08T12:17:47;97179.97;;;20.04;52.63
78073;BME280;67281;48.770;11.440;2023-08-08T12:20:15;97185.47;;;20.02;52.69
78073;BME280;67281;48.770;11.440;2023-08-08T12:22:42;97179.94;;;20.12;51.88
78073;BME280;67281;48.770;11.440;2023-08-08T12:25:09;97186.44;;;20.09;52.29
78073;BME280;67281;48.770;11.440;2023-08-08T12:27:36;97176.44;;;20.11;52.51
78073;BME280;67281;48.770;11.440;2023-08-08T12:30:03;97192.41;;;20.11;51.93
78073;BME280;67281;48.770;11.440;2023-08-08T12:32:30;97178.44;;;20.17;50.96
78073;BME280;67281;48.770;11.440;2023-08-08T12:34:58;97178.94;;;20.21;50.48
78073;BME280;67281;48.770;11.440;2023-08-08T12:37:25;97175.78;;;20.17;50.98
78073;BME280;67281;48.770;11.440;2023-08-08T12:39:52;97175.44;;;20.20;51.70
78073;BME280;67281;48.770;11.440;2023-08-08T12:42:19;97173.59;;;20.21;50.99
78073;BME280;67281;48.770;11.440;2023-08-08T12:44:45;97176.44;;;20.19;51.42
78073;BME280;67281;48.770;11.440;2023-08-08T12:47:13;97179.94;;;20.20;51.14
78073;BME280;67281;48.770;11.440;2023-08-08T12:49:41;97184.56;;;20.26;51.41
78073;BME280;67281;48.770;11.440;2023-08-08T12:52:09;97174.94;;;20.25;51.77
78073;BME280;67281;48.770;11.440;2023-08-08T12:54:36;97179.75;;;20.29;50.91
78073;BME280;67281;48.770;11.440;2023-08-08T12:57:03;97181.91;;;20.26;51.65
78073;BME280;67281;48.770;11.440;2023-08-08T12:59:30;97179.09;;;20.27;50.09